Wetterdaten: Woche 26.01.15 - 01.02.15 (KW5)
Datum Zeit Temp. A. Feuchte A. Luftdruck Regen Wind Richtung Sonnenschein ET UV Solar Taupunkt Windchill Windben
26.01.2015 00:00 -0,1 C 95 % 1027,1 hPa 0,2 l/m 0,1 km/h (0 Bft) N 0,00 h 0,000 mm 0,0 UV-I 0 W/m -0,8 C -0,1 C 0,6 km/h (0 Bft)
26.01.2015 01:00 -0,1 C 96 % 1026,8 hPa 0,0 l/m 0,0 km/h (0 Bft) N 0,00 h 0,000 mm 0,0 UV-I 0 W/m -0,7 C -0,1 C 0,2 km/h (0 Bft)
26.01.2015 02:00 -0,1 C 96 % 1026,6 hPa 0,0 l/m 0,4 km/h (0 Bft) W-SW 0,00 h 0,000 mm 0,0 UV-I 0 W/m -0,7 C -0,1 C 1,5 km/h (1 Bft)
26.01.2015 03:00 -0,1 C 96 % 1026,4 hPa 0,0 l/m 0,3 km/h (0 Bft) W-SW 0,00 h 0,000 mm 0,0 UV-I 0 W/m -0,6 C -0,1 C 1,4 km/h (1 Bft)
26.01.2015 04:00 -0,0 C 96 % 1026,2 hPa 0,0 l/m 0,1 km/h (0 Bft) N 0,00 h 0,000 mm 0,0 UV-I 0 W/m -0,6 C -0,0 C 0,7 km/h (0 Bft)
26.01.2015 05:00 -0,1 C 96 % 1026,0 hPa 0,0 l/m 0,2 km/h (0 Bft) N 0,00 h 0,000 mm 0,0 UV-I 0 W/m -0,7 C -0,1 C 0,7 km/h (0 Bft)
26.01.2015 06:00 -0,1 C 96 % 1026,0 hPa 0,0 l/m 1,1 km/h (0 Bft) W-SW 0,00 h 0,000 mm 0,0 UV-I 0 W/m -0,7 C -0,1 C 2,7 km/h (1 Bft)
26.01.2015 07:00 -0,0 C 96 % 1025,9 hPa 0,0 l/m 3,5 km/h (1 Bft) W-SW 0,00 h 0,000 mm 0,0 UV-I 0 W/m -0,6 C -0,0 C 6,3 km/h (2 Bft)
26.01.2015 08:00 0,0 C 96 % 1026,0 hPa 0,0 l/m 4,1 km/h (1 Bft) W-SW 0,00 h 0,000 mm 0,0 UV-I 7 W/m -0,6 C -0,1 C 6,9 km/h (2 Bft)
26.01.2015 09:00 0,2 C 96 % 1025,8 hPa 0,0 l/m 3,2 km/h (1 Bft) W-SW 0,00 h 0,000 mm 0,0 UV-I 22 W/m -0,3 C 0,2 C 6,0 km/h (2 Bft)
26.01.2015 10:00 0,4 C 95 % 1025,5 hPa 0,0 l/m 5,2 km/h (1 Bft) SW 0,17 h 0,000 mm 0,0 UV-I 37 W/m -0,3 C -0,2 C 8,8 km/h (2 Bft)
26.01.2015 11:00 0,5 C 95 % 1024,9 hPa 0,0 l/m 6,1 km/h (2 Bft) SW 0,88 h 0,025 mm 0,5 UV-I 65 W/m -0,2 C -0,0 C 10,6 km/h (2 Bft)
26.01.2015 12:00 0,8 C 93 % 1024,0 hPa 0,0 l/m 9,0 km/h (2 Bft) S-SW 1,00 h 0,025 mm 0,6 UV-I 87 W/m -0,3 C -1,6 C 14,2 km/h (3 Bft)
26.01.2015 13:00 0,7 C 92 % 1023,2 hPa 0,2 l/m 9,8 km/h (2 Bft) S 0,57 h 0,025 mm 0,6 UV-I 53 W/m -0,4 C -2,4 C 14,9 km/h (3 Bft)
26.01.2015 14:00 0,4 C 93 % 1022,3 hPa 0,0 l/m 10,0 km/h (2 Bft) S-SW 0,05 h 0,025 mm 0,0 UV-I 29 W/m -0,6 C -2,9 C 15,4 km/h (3 Bft)
26.01.2015 15:00 0,5 C 94 % 1021,6 hPa 0,0 l/m 6,7 km/h (2 Bft) S 0,00 h 0,025 mm 0,0 UV-I 12 W/m -0,4 C -0,5 C 11,2 km/h (2 Bft)
26.01.2015 16:00 0,3 C 95 % 1020,8 hPa 0,2 l/m 8,7 km/h (2 Bft) S-SW 0,00 h 0,002 mm 0,0 UV-I 7 W/m -0,4 C -1,9 C 13,6 km/h (3 Bft)
26.01.2015 17:00 0,3 C 95 % 1020,4 hPa 0,0 l/m 9,6 km/h (2 Bft) S 0,00 h 0,000 mm 0,0 UV-I 0 W/m -0,4 C -2,7 C 15,4 km/h (3 Bft)
26.01.2015 18:00 0,1 C 94 % 1019,5 hPa 0,0 l/m 10,6 km/h (2 Bft) S 0,00 h 0,000 mm 0,0 UV-I 0 W/m -0,7 C -3,7 C 16,2 km/h (3 Bft)
26.01.2015 19:00 -0,3 C 95 % 1018,9 hPa 0,0 l/m 11,5 km/h (2 Bft) S 0,00 h 0,000 mm 0,0 UV-I 0 W/m -1,0 C -4,8 C 18,1 km/h (3 Bft)
26.01.2015 20:00 -0,6 C 96 % 1018,0 hPa 0,4 l/m 10,9 km/h (2 Bft) S 0,00 h 0,000 mm 0,0 UV-I 0 W/m -1,2 C -4,7 C 17,0 km/h (3 Bft)
26.01.2015 21:00 -0,7 C 96 % 1017,2 hPa 0,4 l/m 10,0 km/h (2 Bft) S 0,00 h 0,000 mm 0,0 UV-I 0 W/m -1,3 C -4,1 C 15,8 km/h (3 Bft)
26.01.2015 22:00 -0,7 C 96 % 1016,8 hPa 0,4 l/m 5,6 km/h (2 Bft) SW 0,00 h 0,000 mm 0,0 UV-I 0 W/m -1,2 C -1,2 C 9,9 km/h (2 Bft)
26.01.2015 23:00 -0,7 C 97 % 1016,3 hPa 0,6 l/m 4,7 km/h (1 Bft) SW 0,00 h 0,000 mm 0,0 UV-I 0 W/m -1,2 C -0,9 C 7,8 km/h (2 Bft)
27.01.2015 00:00 -0,7 C 97 % 1015,9 hPa 0,4 l/m 3,6 km/h (1 Bft) SW 0,00 h 0,000 mm 0,0 UV-I 0 W/m -1,1 C -0,7 C 6,7 km/h (2 Bft)
27.01.2015 01:00 -0,6 C 97 % 1015,8 hPa 0,2 l/m 3,0 km/h (1 Bft) SW 0,00 h 0,000 mm 0,0 UV-I 0 W/m -1,0 C -0,7 C 5,9 km/h (2 Bft)
27.01.2015 02:00 -0,4 C 97 % 1015,7 hPa 0,0 l/m 3,1 km/h (1 Bft) W-SW 0,00 h 0,000 mm 0,0 UV-I 0 W/m -0,8 C -0,4 C 6,1 km/h (2 Bft)
27.01.2015 03:00 -0,4 C 97 % 1015,8 hPa 0,2 l/m 3,4 km/h (1 Bft) W-NW 0,00 h 0,000 mm 0,0 UV-I 0 W/m -0,8 C -0,4 C 5,6 km/h (2 Bft)
27.01.2015 04:00 -0,2 C 97 % 1016,0 hPa 0,0 l/m 5,1 km/h (1 Bft) W-SW 0,00 h 0,000 mm 0,0 UV-I 0 W/m -0,6 C -0,5 C 8,2 km/h (2 Bft)
27.01.2015 05:00 -0,1 C 97 % 1016,3 hPa 0,0 l/m 4,5 km/h (1 Bft) W-SW 0,00 h 0,000 mm 0,0 UV-I 0 W/m -0,5 C -0,1 C 7,5 km/h (2 Bft)
27.01.2015 06:00 0,1 C 97 % 1016,6 hPa 0,0 l/m 5,3 km/h (1 Bft) W 0,00 h 0,000 mm 0,0 UV-I 0 W/m -0,3 C 0,0 C 8,6 km/h (2 Bft)
27.01.2015 07:00 0,0 C 97 % 1017,2 hPa 0,0 l/m 5,8 km/h (2 Bft) W 0,00 h 0,000 mm 0,0 UV-I 0 W/m -0,4 C -0,3 C 8,8 km/h (2 Bft)
27.01.2015 08:00 -0,0 C 96 % 1017,6 hPa 0,2 l/m 4,7 km/h (1 Bft) W 0,00 h 0,000 mm 0,0 UV-I 14 W/m -0,6 C -0,0 C 7,7 km/h (2 Bft)
27.01.2015 09:00 0,4 C 96 % 1017,9 hPa 0,0 l/m 6,0 km/h (2 Bft) W 0,08 h 0,000 mm 0,0 UV-I 36 W/m -0,2 C -0,1 C 9,3 km/h (2 Bft)
27.01.2015 10:00 1,1 C 92 % 1018,4 hPa 0,0 l/m 6,8 km/h (2 Bft) W 1,00 h 0,025 mm 0,6 UV-I 137 W/m -0,1 C 0,2 C 10,4 km/h (2 Bft)
27.01.2015 11:00 1,3 C 90 % 1018,5 hPa 0,0 l/m 8,9 km/h (2 Bft) W 1,00 h 0,051 mm 0,6 UV-I 124 W/m -0,2 C -1,1 C 14,2 km/h (3 Bft)
27.01.2015 12:00 1,1 C 91 % 1018,3 hPa 0,0 l/m 8,8 km/h (2 Bft) W 1,00 h 0,051 mm 0,7 UV-I 143 W/m -0,1 C -1,1 C 13,6 km/h (3 Bft)
27.01.2015 13:00 1,8 C 90 % 1018,0 hPa 0,0 l/m 9,7 km/h (2 Bft) W-NW 1,00 h 0,051 mm 0,8 UV-I 239 W/m 0,3 C -1,2 C 14,8 km/h (3 Bft)
27.01.2015 14:00 2,2 C 87 % 1017,8 hPa 0,0 l/m 10,2 km/h (2 Bft) W-NW 1,00 h 0,102 mm 0,6 UV-I 189 W/m 0,4 C -0,9 C 14,5 km/h (3 Bft)
27.01.2015 15:00 1,7 C 88 % 1018,2 hPa 0,0 l/m 8,5 km/h (2 Bft) W-NW 0,83 h 0,076 mm 0,5 UV-I 91 W/m -0,1 C -0,5 C 13,5 km/h (3 Bft)
27.01.2015 16:00 1,4 C 88 % 1018,7 hPa 0,0 l/m 2,7 km/h (1 Bft) W 0,35 h 0,051 mm 0,0 UV-I 43 W/m -0,5 C 1,3 C 5,4 km/h (1 Bft)
27.01.2015 17:00 0,7 C 89 % 1019,0 hPa 0,0 l/m 4,6 km/h (1 Bft) W-NW 0,00 h 0,025 mm 0,0 UV-I 0 W/m -0,9 C 0,6 C 7,6 km/h (2 Bft)
27.01.2015 18:00 0,3 C 91 % 1019,4 hPa 0,0 l/m 4,4 km/h (1 Bft) NW 0,00 h 0,000 mm 0,0 UV-I 0 W/m -1,0 C 0,2 C 7,2 km/h (2 Bft)
27.01.2015 19:00 0,1 C 91 % 1019,6 hPa 0,0 l/m 5,7 km/h (2 Bft) W-NW 0,00 h 0,000 mm 0,0 UV-I 0 W/m -1,2 C -0,2 C 9,3 km/h (2 Bft)
27.01.2015 20:00 0,1 C 92 % 1019,8 hPa 0,0 l/m 3,3 km/h (1 Bft) W 0,00 h 0,000 mm 0,0 UV-I 0 W/m -1,0 C 0,0 C 5,9 km/h (2 Bft)
27.01.2015 21:00 0,1 C 93 % 1020,2 hPa 0,0 l/m 1,3 km/h (1 Bft) W-SW 0,00 h 0,000 mm 0,0 UV-I 0 W/m -0,9 C 0,1 C 3,3 km/h (1 Bft)
27.01.2015 22:00 0,2 C 93 % 1020,1 hPa 0,0 l/m 1,9 km/h (1 Bft) W 0,00 h 0,000 mm 0,0 UV-I 0 W/m -0,9 C 0,2 C 4,2 km/h (1 Bft)
27.01.2015 23:00 0,3 C 92 % 1020,1 hPa 0,0 l/m 3,0 km/h (1 Bft) SW 0,00 h 0,000 mm 0,0 UV-I 0 W/m -0,9 C 0,3 C 5,8 km/h (2 Bft)
28.01.2015 00:00 0,1 C 93 % 1020,4 hPa 0,0 l/m 2,5 km/h (1 Bft) W 0,00 h 0,000 mm 0,0 UV-I 0 W/m -0,9 C 0,1 C 5,1 km/h (1 Bft)
28.01.2015 01:00 0,1 C 94 % 1020,6 hPa 0,0 l/m 3,0 km/h (1 Bft) W 0,00 h 0,000 mm 0,0 UV-I 0 W/m -0,8 C 0,1 C 5,9 km/h (2 Bft)
28.01.2015 02:00 0,1 C 94 % 1020,4 hPa 0,0 l/m 6,2 km/h (2 Bft) W 0,00 h 0,000 mm 0,0 UV-I 0 W/m -0,7 C -0,4 C 10,0 km/h (2 Bft)
28.01.2015 03:00 0,2 C 94 % 1019,9 hPa 0,0 l/m 6,5 km/h (2 Bft) W 0,00 h 0,000 mm 0,0 UV-I 0 W/m -0,6 C -0,6 C 10,5 km/h (2 Bft)
28.01.2015 04:00 0,2 C 94 % 1019,6 hPa 0,0 l/m 6,7 km/h (2 Bft) W 0,00 h 0,000 mm 0,0 UV-I 0 W/m -0,6 C -1,0 C 10,3 km/h (2 Bft)
28.01.2015 05:00 0,1 C 94 % 1019,2 hPa 0,0 l/m 4,6 km/h (1 Bft) W-SW 0,00 h 0,000 mm 0,0 UV-I 0 W/m -0,6 C 0,0 C 7,3 km/h (2 Bft)
28.01.2015 06:00 0,2 C 95 % 1018,8 hPa 0,0 l/m 4,3 km/h (1 Bft) W-SW 0,00 h 0,000 mm 0,0 UV-I 0 W/m -0,5 C 0,0 C 7,6 km/h (2 Bft)
28.01.2015 07:00 0,3 C 95 % 1018,8 hPa 0,0 l/m 7,0 km/h (2 Bft) W-SW 0,00 h 0,000 mm 0,0 UV-I 0 W/m -0,4 C -0,8 C 11,1 km/h (2 Bft)
28.01.2015 08:00 0,4 C 96 % 1018,6 hPa 0,0 l/m 6,3 km/h (2 Bft) SW 0,08 h 0,000 mm 0,0 UV-I 27 W/m -0,2 C -0,5 C 9,9 km/h (2 Bft)
28.01.2015 09:00 0,7 C 93 % 1018,0 hPa 0,0 l/m 7,7 km/h (2 Bft) S-SW 0,82 h 0,000 mm 0,5 UV-I 84 W/m -0,3 C -0,8 C 12,5 km/h (2 Bft)
28.01.2015 10:00 0,8 C 93 % 1017,2 hPa 0,0 l/m 7,3 km/h (2 Bft) S 0,67 h 0,025 mm 0,0 UV-I 52 W/m -0,2 C -0,4 C 11,9 km/h (2 Bft)
28.01.2015 11:00 0,8 C 95 % 1016,3 hPa 0,0 l/m 8,9 km/h (2 Bft) SW 0,37 h 0,025 mm 0,0 UV-I 46 W/m 0,1 C -1,7 C 14,7 km/h (3 Bft)
28.01.2015 12:00 0,8 C 95 % 1015,4 hPa 0,0 l/m 9,6 km/h (2 Bft) SW 0,05 h 0,025 mm 0,5 UV-I 34 W/m 0,1 C -2,1 C 15,0 km/h (3 Bft)
28.01.2015 13:00 1,0 C 94 % 1013,8 hPa 0,0 l/m 10,8 km/h (2 Bft) SW 0,57 h 0,025 mm 0,6 UV-I 56 W/m 0,1 C -2,8 C 17,6 km/h (3 Bft)
28.01.2015 14:00 1,1 C 92 % 1012,2 hPa 0,0 l/m 12,8 km/h (3 Bft) S 0,70 h 0,025 mm 0,5 UV-I 59 W/m -0,0 C -4,1 C 19,6 km/h (3 Bft)
28.01.2015 15:00 1,2 C 91 % 1010,5 hPa 0,0 l/m 13,8 km/h (3 Bft) S 0,50 h 0,025 mm 0,0 UV-I 48 W/m -0,1 C -4,7 C 21,5 km/h (4 Bft)
28.01.2015 16:00 1,2 C 90 % 1009,3 hPa 0,0 l/m 13,5 km/h (3 Bft) S 0,00 h 0,025 mm 0,0 UV-I 15 W/m -0,3 C -4,6 C 21,5 km/h (4 Bft)
28.01.2015 17:00 0,9 C 91 % 1007,9 hPa 0,0 l/m 14,2 km/h (3 Bft) S 0,00 h 0,028 mm 0,0 UV-I 0 W/m -0,4 C -5,2 C 21,1 km/h (4 Bft)
28.01.2015 18:00 0,7 C 91 % 1006,2 hPa 0,0 l/m 16,4 km/h (3 Bft) S 0,00 h 0,000 mm 0,0 UV-I 0 W/m -0,7 C -6,8 C 24,8 km/h (4 Bft)
28.01.2015 19:00 0,7 C 91 % 1004,8 hPa 0,0 l/m 15,6 km/h (3 Bft) S 0,00 h 0,000 mm 0,0 UV-I 0 W/m -0,7 C -6,3 C 23,4 km/h (4 Bft)
28.01.2015 20:00 0,6 C 90 % 1002,6 hPa 0,0 l/m 15,8 km/h (3 Bft) S 0,00 h 0,000 mm 0,0 UV-I 0 W/m -0,8 C -6,6 C 24,3 km/h (4 Bft)
28.01.2015 21:00 0,4 C 91 % 1001,5 hPa 0,2 l/m 15,9 km/h (3 Bft) S 0,00 h 0,000 mm 0,0 UV-I 0 W/m -0,8 C -6,7 C 24,4 km/h (4 Bft)
28.01.2015 22:00 -0,3 C 96 % 1000,2 hPa 0,6 l/m 9,4 km/h (2 Bft) S 0,00 h 0,000 mm 0,0 UV-I 0 W/m -0,8 C -3,1 C 14,4 km/h (3 Bft)
28.01.2015 23:00 -0,2 C 96 % 999,0 hPa 0,4 l/m 8,4 km/h (2 Bft) S 0,00 h 0,000 mm 0,0 UV-I 0 W/m -0,7 C -2,3 C 13,4 km/h (3 Bft)
29.01.2015 00:00 0,1 C 97 % 998,0 hPa 0,2 l/m 6,7 km/h (2 Bft) S 0,00 h 0,000 mm 0,0 UV-I 0 W/m -0,3 C -0,8 C 11,0 km/h (2 Bft)
29.01.2015 01:00 0,4 C 97 % 997,5 hPa 0,2 l/m 6,3 km/h (2 Bft) W-SW 0,00 h 0,000 mm 0,0 UV-I 0 W/m -0,0 C -0,4 C 10,2 km/h (2 Bft)
29.01.2015 02:00 0,6 C 97 % 998,0 hPa 0,0 l/m 10,2 km/h (2 Bft) W-NW 0,00 h 0,000 mm 0,0 UV-I 0 W/m 0,1 C -2,9 C 15,4 km/h (3 Bft)
29.01.2015 03:00 -0,0 C 94 % 998,4 hPa 0,2 l/m 8,6 km/h (2 Bft) W 0,00 h 0,000 mm 0,0 UV-I 0 W/m -0,9 C -2,2 C 13,7 km/h (3 Bft)
29.01.2015 04:00 -0,7 C 93 % 998,5 hPa 0,0 l/m 6,0 km/h (2 Bft) W-NW 0,00 h 0,000 mm 0,0 UV-I 0 W/m -1,8 C -1,5 C 9,8 km/h (2 Bft)
29.01.2015 05:00 -0,7 C 92 % 998,5 hPa 0,0 l/m 6,2 km/h (2 Bft) W-SW 0,00 h 0,000 mm 0,0 UV-I 0 W/m -1,8 C -1,4 C 9,9 km/h (2 Bft)
29.01.2015 06:00 -0,8 C 91 % 998,4 hPa 0,0 l/m 7,7 km/h (2 Bft) W-SW 0,00 h 0,000 mm 0,0 UV-I 0 W/m -2,1 C -2,4 C 12,1 km/h (2 Bft)
29.01.2015 07:00 -1,0 C 91 % 998,5 hPa 0,0 l/m 8,0 km/h (2 Bft) SW 0,00 h 0,000 mm 0,0 UV-I 0 W/m -2,2 C -2,8 C 12,4 km/h (2 Bft)
29.01.2015 08:00 -0,9 C 92 % 998,6 hPa 0,0 l/m 8,2 km/h (2 Bft) SW 0,10 h 0,000 mm 0,0 UV-I 23 W/m -2,0 C -2,9 C 13,1 km/h (3 Bft)
29.01.2015 09:00 -0,5 C 89 % 998,2 hPa 0,0 l/m 11,5 km/h (2 Bft) SW 0,32 h 0,000 mm 0,0 UV-I 45 W/m -2,1 C -5,0 C 18,4 km/h (3 Bft)
29.01.2015 10:00 -0,2 C 87 % 997,9 hPa 0,0 l/m 10,1 km/h (2 Bft) SW 0,48 h 0,025 mm 0,0 UV-I 53 W/m -2,0 C -3,5 C 15,9 km/h (3 Bft)
29.01.2015 11:00 0,3 C 86 % 996,8 hPa 0,0 l/m 10,7 km/h (2 Bft) S 1,00 h 0,025 mm 0,6 UV-I 117 W/m -1,7 C -3,5 C 15,8 km/h (3 Bft)
29.01.2015 12:00 0,7 C 85 % 995,0 hPa 0,0 l/m 12,6 km/h (3 Bft) S 1,00 h 0,051 mm 0,8 UV-I 140 W/m -1,6 C -4,4 C 19,3 km/h (3 Bft)
29.01.2015 13:00 1,0 C 83 % 993,2 hPa 0,0 l/m 10,9 km/h (2 Bft) S 1,00 h 0,051 mm 0,7 UV-I 108 W/m -1,5 C -2,8 C 16,2 km/h (3 Bft)
29.01.2015 14:00 1,4 C 81 % 991,5 hPa 0,0 l/m 12,4 km/h (2 Bft) S 1,00 h 0,051 mm 0,6 UV-I 144 W/m -1,5 C -3,6 C 19,3 km/h (3 Bft)
29.01.2015 15:00 1,5 C 81 % 990,2 hPa 0,0 l/m 10,6 km/h (2 Bft) S 0,60 h 0,076 mm 0,5 UV-I 81 W/m -1,4 C -2,1 C 16,4 km/h (3 Bft)
29.01.2015 16:00 0,5 C 91 % 989,2 hPa 0,0 l/m 9,9 km/h (2 Bft) S 0,00 h 0,051 mm 0,0 UV-I 14 W/m -0,8 C -2,8 C 15,0 km/h (3 Bft)
29.01.2015 17:00 0,3 C 93 % 988,0 hPa 0,0 l/m 10,5 km/h (2 Bft) S-SO 0,00 h 0,000 mm 0,0 UV-I 0 W/m -0,8 C -3,4 C 15,5 km/h (3 Bft)
29.01.2015 18:00 0,7 C 90 % 986,8 hPa 0,0 l/m 10,9 km/h (2 Bft) S-SO 0,00 h 0,000 mm 0,0 UV-I 0 W/m -0,8 C -3,2 C 15,7 km/h (3 Bft)
29.01.2015 19:00 0,9 C 89 % 985,1 hPa 0,0 l/m 12,5 km/h (2 Bft) S-SO 0,00 h 0,000 mm 0,0 UV-I 0 W/m -0,7 C -4,1 C 17,8 km/h (3 Bft)
29.01.2015 20:00 1,0 C 91 % 983,6 hPa 0,2 l/m 14,0 km/h (3 Bft) S-SO 0,00 h 0,000 mm 0,0 UV-I 0 W/m -0,3 C -5,0 C 20,2 km/h (4 Bft)
29.01.2015 21:00 0,7 C 95 % 981,9 hPa 0,0 l/m 9,0 km/h (2 Bft) S-SO 0,00 h 0,000 mm 0,0 UV-I 0 W/m -0,1 C -1,8 C 14,1 km/h (3 Bft)
29.01.2015 22:00 0,6 C 95 % 980,1 hPa 0,0 l/m 9,6 km/h (2 Bft) SO 0,00 h 0,000 mm 0,0 UV-I 0 W/m -0,1 C -2,3 C 14,5 km/h (3 Bft)
29.01.2015 23:00 0,5 C 95 % 978,7 hPa 0,4 l/m 9,7 km/h (2 Bft) S-SO 0,00 h 0,000 mm 0,0 UV-I 0 W/m -0,1 C -2,5 C 15,0 km/h (3 Bft)
30.01.2015 00:00 0,6 C 95 % 977,2 hPa 0,2 l/m 10,7 km/h (2 Bft) S-SO 0,00 h 0,000 mm 0,0 UV-I 0 W/m -0,1 C -3,2 C 15,7 km/h (3 Bft)
30.01.2015 01:00 0,8 C 94 % 975,8 hPa 0,0 l/m 10,2 km/h (2 Bft) S-SO 0,00 h 0,000 mm 0,0 UV-I 0 W/m -0,1 C -2,6 C 15,1 km/h (3 Bft)
30.01.2015 02:00 0,9 C 94 % 974,8 hPa 0,0 l/m 10,8 km/h (2 Bft) S-SO 0,00 h 0,000 mm 0,0 UV-I 0 W/m 0,1 C -2,9 C 15,8 km/h (3 Bft)
30.01.2015 03:00 0,8 C 95 % 973,8 hPa 0,2 l/m 8,5 km/h (2 Bft) S-SO 0,00 h 0,000 mm 0,0 UV-I 0 W/m 0,1 C -1,3 C 12,4 km/h (2 Bft)
30.01.2015 04:00 0,7 C 96 % 973,3 hPa 0,8 l/m 8,4 km/h (2 Bft) S 0,00 h 0,000 mm 0,0 UV-I 0 W/m 0,1 C -1,4 C 12,3 km/h (2 Bft)
30.01.2015 05:00 0,6 C 97 % 973,5 hPa 1,2 l/m 7,1 km/h (2 Bft) S 0,00 h 0,000 mm 0,0 UV-I 0 W/m 0,2 C -0,4 C 10,9 km/h (2 Bft)
30.01.2015 06:00 0,4 C 97 % 973,9 hPa 0,6 l/m 6,1 km/h (2 Bft) S 0,00 h 0,000 mm 0,0 UV-I 0 W/m 0,0 C -0,0 C 9,3 km/h (2 Bft)
30.01.2015 07:00 0,5 C 97 % 975,0 hPa 0,0 l/m 6,3 km/h (2 Bft) S-SW 0,00 h 0,000 mm 0,0 UV-I 0 W/m 0,1 C -0,2 C 9,6 km/h (2 Bft)
30.01.2015 08:00 0,6 C 97 % 975,2 hPa 0,0 l/m 6,7 km/h (2 Bft) S 0,00 h 0,000 mm 0,0 UV-I 11 W/m 0,2 C -0,2 C 10,4 km/h (2 Bft)
30.01.2015 09:00 0,5 C 96 % 976,3 hPa 0,2 l/m 11,2 km/h (2 Bft) W-SW 0,00 h 0,000 mm 0,0 UV-I 28 W/m -0,0 C -3,6 C 17,0 km/h (3 Bft)
30.01.2015 10:00 -0,2 C 93 % 977,8 hPa 0,2 l/m 11,6 km/h (2 Bft) W 0,72 h 0,025 mm 0,5 UV-I 64 W/m -1,2 C -4,8 C 18,0 km/h (3 Bft)
30.01.2015 11:00 -0,4 C 87 % 978,3 hPa 0,0 l/m 10,4 km/h (2 Bft) W 0,72 h 0,025 mm 0,5 UV-I 65 W/m -2,3 C -4,1 C 16,3 km/h (3 Bft)
30.01.2015 12:00 -0,7 C 87 % 978,6 hPa 0,0 l/m 8,8 km/h (2 Bft) W-SW 0,92 h 0,026 mm 0,5 UV-I 64 W/m -2,5 C -3,2 C 13,7 km/h (3 Bft)
30.01.2015 13:00 -0,7 C 88 % 978,4 hPa 0,0 l/m 9,0 km/h (2 Bft) W-SW 0,98 h 0,025 mm 0,5 UV-I 115 W/m -2,3 C -3,2 C 13,2 km/h (3 Bft)
30.01.2015 14:00 -0,5 C 89 % 978,3 hPa 0,0 l/m 7,0 km/h (2 Bft) SW 1,00 h 0,051 mm 0,5 UV-I 137 W/m -2,1 C -1,9 C 11,8 km/h (2 Bft)
30.01.2015 15:00 -0,5 C 89 % 978,2 hPa 0,0 l/m 5,0 km/h (1 Bft) SW 0,73 h 0,051 mm 0,0 UV-I 84 W/m -2,1 C -0,8 C 8,1 km/h (2 Bft)
30.01.2015 16:00 -0,9 C 91 % 978,3 hPa 0,0 l/m 7,4 km/h (2 Bft) S-SW 0,15 h 0,025 mm 0,0 UV-I 31 W/m -2,2 C -2,5 C 11,5 km/h (2 Bft)
30.01.2015 17:00 -1,3 C 94 % 978,3 hPa 0,8 l/m 8,5 km/h (2 Bft) W-SW 0,00 h 0,000 mm 0,0 UV-I 0 W/m -2,1 C -3,6 C 13,4 km/h (3 Bft)
30.01.2015 18:00 -2,0 C 95 % 978,1 hPa 0,2 l/m 3,7 km/h (1 Bft) W-SW 0,00 h 0,000 mm 0,0 UV-I 0 W/m -2,7 C -2,2 C 6,5 km/h (2 Bft)
30.01.2015 19:00 -1,9 C 96 % 978,1 hPa 0,0 l/m 3,0 km/h (1 Bft) W-SW 0,00 h 0,000 mm 0,0 UV-I 0 W/m -2,5 C -2,0 C 5,6 km/h (2 Bft)
30.01.2015 20:00 -1,8 C 96 % 978,3 hPa 0,0 l/m 2,2 km/h (1 Bft) SW 0,00 h 0,000 mm 0,0 UV-I 0 W/m -2,4 C -1,8 C 4,4 km/h (1 Bft)
30.01.2015 21:00 -2,0 C 95 % 978,5 hPa 0,0 l/m 3,7 km/h (1 Bft) S 0,00 h 0,001 mm 0,0 UV-I 0 W/m -2,7 C -2,0 C 6,1 km/h (2 Bft)
30.01.2015 22:00 -2,2 C 95 % 978,7 hPa 0,0 l/m 1,1 km/h (1 Bft) N 0,00 h 0,000 mm 0,0 UV-I 0 W/m -2,9 C -2,2 C 2,6 km/h (1 Bft)
30.01.2015 23:00 -2,3 C 95 % 979,1 hPa 0,0 l/m 2,6 km/h (1 Bft) W-SW 0,00 h 0,000 mm 0,0 UV-I 0 W/m -2,9 C -2,3 C 4,7 km/h (1 Bft)
31.01.2015 00:00 -2,8 C 94 % 979,4 hPa 0,0 l/m 0,2 km/h (0 Bft) N 0,00 h 0,000 mm 0,0 UV-I 0 W/m -3,6 C -2,8 C 0,9 km/h (0 Bft)
31.01.2015 01:00 -4,0 C 93 % 979,7 hPa 0,0 l/m 0,4 km/h (0 Bft) N 0,00 h 0,000 mm 0,0 UV-I 0 W/m -4,9 C -4,0 C 0,9 km/h (0 Bft)
31.01.2015 02:00 -4,9 C 94 % 980,4 hPa 0,0 l/m 0,4 km/h (0 Bft) N 0,00 h 0,000 mm 0,0 UV-I 0 W/m -5,8 C -4,9 C 0,7 km/h (0 Bft)
31.01.2015 03:00 -5,0 C 95 % 980,9 hPa 0,0 l/m 0,0 km/h (0 Bft) N 0,00 h 0,000 mm 0,0 UV-I 0 W/m -5,7 C -5,0 C 0,2 km/h (0 Bft)
31.01.2015 04:00 -4,2 C 96 % 981,2 hPa 0,0 l/m 1,0 km/h (0 Bft) N 0,00 h 0,000 mm 0,0 UV-I 0 W/m -4,7 C -4,2 C 2,1 km/h (1 Bft)
31.01.2015 05:00 -4,0 C 96 % 981,4 hPa 0,0 l/m 1,8 km/h (1 Bft) S-SO 0,00 h 0,000 mm 0,0 UV-I 0 W/m -4,6 C -4,0 C 3,8 km/h (1 Bft)
31.01.2015 06:00 -3,0 C 96 % 981,6 hPa 0,0 l/m 5,7 km/h (2 Bft) S-SW 0,00 h 0,000 mm 0,0 UV-I 0 W/m -3,5 C -3,3 C 9,6 km/h (2 Bft)
31.01.2015 07:00 -2,5 C 95 % 981,5 hPa 0,0 l/m 8,7 km/h (2 Bft) S 0,00 h 0,000 mm 0,0 UV-I 0 W/m -3,2 C -5,0 C 13,4 km/h (3 Bft)
31.01.2015 08:00 -2,2 C 95 % 981,9 hPa 0,2 l/m 8,9 km/h (2 Bft) S 0,00 h 0,000 mm 0,0 UV-I 10 W/m -2,9 C -4,8 C 14,0 km/h (3 Bft)
31.01.2015 09:00 -1,9 C 95 % 982,0 hPa 0,6 l/m 7,6 km/h (2 Bft) S-SW 0,00 h 0,000 mm 0,0 UV-I 27 W/m -2,6 C -3,4 C 12,2 km/h (2 Bft)
31.01.2015 10:00 -1,4 C 95 % 982,6 hPa 0,2 l/m 7,7 km/h (2 Bft) W-SW 0,15 h 0,000 mm 0,0 UV-I 32 W/m -2,1 C -3,2 C 12,5 km/h (2 Bft)
31.01.2015 11:00 -1,0 C 95 % 983,5 hPa 0,0 l/m 8,7 km/h (2 Bft) W-SW 0,62 h 0,025 mm 0,0 UV-I 55 W/m -1,8 C -3,4 C 13,0 km/h (3 Bft)
31.01.2015 12:00 -0,8 C 94 % 984,2 hPa 0,0 l/m 7,7 km/h (2 Bft) W-SW 0,55 h 0,025 mm 0,0 UV-I 50 W/m -1,7 C -2,4 C 11,8 km/h (2 Bft)
31.01.2015 13:00 -0,4 C 93 % 984,5 hPa 0,0 l/m 7,9 km/h (2 Bft) W-SW 1,00 h 0,025 mm 0,6 UV-I 86 W/m -1,4 C -2,0 C 12,6 km/h (2 Bft)
31.01.2015 14:00 -0,2 C 92 % 984,8 hPa 0,0 l/m 6,4 km/h (2 Bft) W-SW 0,33 h 0,025 mm 0,0 UV-I 46 W/m -1,4 C -1,0 C 10,2 km/h (2 Bft)
31.01.2015 15:00 -0,4 C 93 % 985,4 hPa 0,0 l/m 6,3 km/h (2 Bft) W-SW 0,20 h 0,027 mm 0,0 UV-I 41 W/m -1,4 C -1,0 C 9,6 km/h (2 Bft)
31.01.2015 16:00 -0,6 C 93 % 986,0 hPa 0,0 l/m 4,8 km/h (1 Bft) SW 0,00 h 0,025 mm 0,0 UV-I 17 W/m -1,7 C -0,9 C 7,9 km/h (2 Bft)
31.01.2015 17:00 -1,0 C 93 % 986,7 hPa 0,0 l/m 2,3 km/h (1 Bft) S-SO 0,00 h 0,000 mm 0,0 UV-I 0 W/m -2,0 C -1,0 C 4,0 km/h (1 Bft)
31.01.2015 18:00 -1,2 C 94 % 987,2 hPa 0,0 l/m 1,6 km/h (1 Bft) SW 0,00 h 0,000 mm 0,0 UV-I 0 W/m -2,0 C -1,2 C 3,2 km/h (1 Bft)
31.01.2015 19:00 -1,2 C 95 % 987,7 hPa 0,0 l/m 1,5 km/h (1 Bft) SW 0,00 h 0,000 mm 0,0 UV-I 0 W/m -1,9 C -1,2 C 3,7 km/h (1 Bft)
31.01.2015 20:00 -1,5 C 95 % 988,1 hPa 0,0 l/m 0,1 km/h (0 Bft) N 0,00 h 0,000 mm 0,0 UV-I 0 W/m -2,2 C -1,5 C 0,3 km/h (0 Bft)
31.01.2015 21:00 -1,9 C 95 % 988,3 hPa 0,0 l/m 0,4 km/h (0 Bft) N 0,00 h 0,000 mm 0,0 UV-I 0 W/m -2,6 C -1,9 C 1,0 km/h (0 Bft)
31.01.2015 22:00 -1,9 C 95 % 988,5 hPa 0,0 l/m 0,0 km/h (0 Bft) N 0,00 h 0,000 mm 0,0 UV-I 0 W/m -2,6 C -1,9 C 0,2 km/h (0 Bft)
31.01.2015 23:00 -1,8 C 95 % 988,4 hPa 0,0 l/m 1,5 km/h (1 Bft) N 0,00 h 0,000 mm 0,0 UV-I 0 W/m -2,5 C -1,8 C 2,9 km/h (1 Bft)
01.02.2015 00:00 -1,8 C 94 % 988,6 hPa 0,0 l/m 1,3 km/h (1 Bft) S-SW 0,00 h 0,000 mm 0,0 UV-I 0 W/m -2,5 C -1,8 C 2,6 km/h (1 Bft)
01.02.2015 01:00 -1,7 C 95 % 988,5 hPa 0,0 l/m 1,8 km/h (1 Bft) S 0,00 h 0,000 mm 0,0 UV-I 0 W/m -2,4 C -1,7 C 3,5 km/h (1 Bft)
01.02.2015 02:00 -1,6 C 95 % 988,5 hPa 0,0 l/m 1,9 km/h (1 Bft) S 0,00 h 0,000 mm 0,0 UV-I 0 W/m -2,3 C -1,6 C 3,8 km/h (1 Bft)
01.02.2015 03:00 -1,3 C 95 % 988,5 hPa 0,0 l/m 4,8 km/h (1 Bft) S 0,00 h 0,000 mm 0,0 UV-I 0 W/m -2,0 C -1,5 C 8,2 km/h (2 Bft)
01.02.2015 04:00 -1,3 C 96 % 988,8 hPa 0,0 l/m 4,1 km/h (1 Bft) S-SW 0,00 h 0,000 mm 0,0 UV-I 0 W/m -1,9 C -1,3 C 7,0 km/h (2 Bft)
01.02.2015 05:00 -1,3 C 96 % 989,0 hPa 0,0 l/m 3,3 km/h (1 Bft) S-SW 0,00 h 0,000 mm 0,0 UV-I 0 W/m -2,0 C -1,3 C 6,0 km/h (2 Bft)
01.02.2015 06:00 -1,6 C 95 % 989,5 hPa 0,0 l/m 3,0 km/h (1 Bft) SW 0,00 h 0,000 mm 0,0 UV-I 0 W/m -2,3 C -1,6 C 5,2 km/h (1 Bft)
01.02.2015 07:00 -1,7 C 94 % 990,1 hPa 0,0 l/m 2,5 km/h (1 Bft) S 0,00 h 0,000 mm 0,0 UV-I 5 W/m -2,6 C -1,7 C 4,7 km/h (1 Bft)
01.02.2015 08:00 -2,1 C 93 % 990,5 hPa 0,0 l/m 0,9 km/h (0 Bft) S 0,00 h 0,000 mm 0,0 UV-I 22 W/m -3,0 C -2,1 C 2,4 km/h (1 Bft)
01.02.2015 09:00 -1,4 C 92 % 990,7 hPa 0,0 l/m 1,9 km/h (1 Bft) S-SW 0,95 h 0,000 mm 0,5 UV-I 136 W/m -2,5 C -1,5 C 3,4 km/h (1 Bft)
01.02.2015 10:00 -0,3 C 90 % 991,0 hPa 0,0 l/m 3,5 km/h (1 Bft) S 1,00 h 0,051 mm 0,8 UV-I 207 W/m -1,8 C -0,6 C 6,3 km/h (2 Bft)
01.02.2015 11:00 0,4 C 88 % 991,4 hPa 0,0 l/m 5,3 km/h (1 Bft) SW 1,00 h 0,076 mm 0,9 UV-I 244 W/m -1,4 C -0,3 C 9,2 km/h (2 Bft)
01.02.2015 12:00 -0,2 C 89 % 991,7 hPa 0,0 l/m 6,8 km/h (2 Bft) S 1,00 h 0,076 mm 0,6 UV-I 109 W/m -1,8 C -1,3 C 10,1 km/h (2 Bft)
01.02.2015 13:00 -0,3 C 91 % 992,0 hPa 0,0 l/m 6,2 km/h (2 Bft) S 1,00 h 0,051 mm 0,5 UV-I 77 W/m -1,6 C -1,0 C 9,7 km/h (2 Bft)
01.02.2015 14:00 -0,3 C 91 % 992,3 hPa 0,0 l/m 4,7 km/h (1 Bft) S 0,92 h 0,025 mm 0,0 UV-I 74 W/m -1,6 C -0,4 C 7,4 km/h (2 Bft)
01.02.2015 15:00 -0,1 C 91 % 992,6 hPa 0,0 l/m 3,5 km/h (1 Bft) S-SW 0,57 h 0,025 mm 0,5 UV-I 59 W/m -1,4 C -0,1 C 6,6 km/h (2 Bft)
01.02.2015 16:00 -0,2 C 92 % 993,0 hPa 0,0 l/m 3,6 km/h (1 Bft) S-SW 0,00 h 0,025 mm 0,0 UV-I 21 W/m -1,4 C -0,2 C 6,4 km/h (2 Bft)
01.02.2015 17:00 -0,4 C 93 % 993,4 hPa 0,0 l/m 4,4 km/h (1 Bft) SW 0,00 h 0,001 mm 0,0 UV-I 0 W/m -1,4 C -0,5 C 7,9 km/h (2 Bft)
01.02.2015 18:00 -0,5 C 94 % 994,1 hPa 0,0 l/m 5,2 km/h (1 Bft) SW 0,00 h 0,000 mm 0,0 UV-I 0 W/m -1,4 C -0,8 C 8,7 km/h (2 Bft)
01.02.2015 19:00 -0,8 C 93 % 994,6 hPa 0,0 l/m 3,9 km/h (1 Bft) SW 0,00 h 0,000 mm 0,0 UV-I 0 W/m -1,7 C -0,8 C 6,4 km/h (2 Bft)
01.02.2015 20:00 -1,1 C 93 % 995,0 hPa 0,0 l/m 2,1 km/h (1 Bft) W-SW 0,00 h 0,000 mm 0,0 UV-I 0 W/m -2,2 C -1,1 C 4,0 km/h (1 Bft)
01.02.2015 21:00 -1,7 C 93 % 995,4 hPa 0,0 l/m 0,7 km/h (0 Bft) N 0,00 h 0,000 mm 0,0 UV-I 0 W/m -2,6 C -1,7 C 1,8 km/h (1 Bft)
01.02.2015 22:00 -1,4 C 95 % 995,5 hPa 0,0 l/m 3,9 km/h (1 Bft) SW 0,00 h 0,000 mm 0,0 UV-I 0 W/m -2,1 C -1,5 C 7,1 km/h (2 Bft)
01.02.2015 23:00 -1,3 C 94 % 995,5 hPa 0,0 l/m 3,2 km/h (1 Bft) SW 0,00 h 0,000 mm 0,0 UV-I 0 W/m -2,1 C -1,4 C 6,4 km/h (2 Bft)
Min-Datum _ 31.01.15 29.01.15 30.01.15 - 26.01.15 - - - - - 31.01.15 28.01.15 26.01.15
_ Min-Zeit 02:49 14:54 04:12 - 00:00 - - - - - 02:49 20:50 00:00
Minimum _ -5,2 C 79 % 973,3 hPa - 0,0 km/h (0 Bft) - - - - - -6,0 C -10,6 C 0,0 km/h (0 Bft)
Max-Datum _ 27.01.15 26.01.15 26.01.15 30.01.15 28.01.15 - 01.02.15 27.01.15 01.02.15 01.02.15 27.01.15 27.01.15 28.01.15
_ Max-Zeit 14:05 22:30 00:00 05:03 18:10 - 09:49 14:00 10:58 11:03 14:04 14:04 16:02
Maximum _ 3,2 C 97 % 1027,3 hPa 1,2 l/m 24,1 km/h
S (4 Bft)
- 0,08 h 0,102 mm 1,1 UV-I 476 W/m 1,2 C 3,1 C 35,4 km/h
S (5 Bft)
Durchschnitt _ -0,3 C 93 % 999,9 hPa #11,2 l/m 6,3 km/h (2 Bft) S #32:41 h #1,803 mm 0,6 UV-I 69 W/m -1,3 C -1,9 C 10,1 km/h (2 Bft)